| Date | Time | Temp. (oF) | Dew Point (oF) | Rel. Hum. (%) | Press. (in.) | Wind Dir. | Wind Speed (mph) | Hourly Rainfall (in.) |
|
|---|---|---|---|---|---|---|---|---|---|
| 1 | 05/28 | 00:00 | 64 | 47 | 56 | 29.86 | WSW | 1 | 0.00 |
| 2 | 05/27 | 23:00 | 65 | 47 | 53 | 29.85 | SW | 2 | 0.00 |
| 3 | 05/27 | 22:00 | 68 | 46 | 46 | 29.84 | SW | 2 | 0.00 |
| 4 | 05/27 | 21:00 | 71 | 46 | 42 | 29.81 | WSW | 2 | 0.00 |
| 5 | 05/27 | 20:00 | 75 | 46 | 37 | 29.80 | W | 6 | 0.00 |
| 6 | 05/27 | 19:00 | 77 | 47 | 36 | 29.77 | W | 3 | 0.00 |
| 7 | 05/27 | 18:00 | 79 | 49 | 36 | 29.76 | W | 10 | 0.00 |
| 8 | 05/27 | 17:00 | 80 | 51 | 37 | 29.75 | WSW | 10 | 0.00 |
| 9 | 05/27 | 16:00 | 79 | 57 | 48 | 29.75 | SW | 7 | 0.00 |
| 10 | 05/27 | 15:00 | 79 | 56 | 46 | 29.76 | S | 7 | 0.00 |
| 11 | 05/27 | 14:00 | 79 | 55 | 44 | 29.77 | WSW | 13 | 0.00 |
| 12 | 05/27 | 13:00 | 79 | 55 | 45 | 29.78 | WSW | 2 | 0.00 |
| 13 | 05/27 | 12:00 | 78 | 54 | 45 | 29.80 | WNW | 5 | 0.00 |
| 14 | 05/27 | 11:00 | 75 | 55 | 51 | 29.81 | SW | 1 | 0.00 |
| 15 | 05/27 | 10:00 | 71 | 52 | 53 | 29.81 | SW | 4 | 0.00 |
| 16 | 05/27 | 09:00 | 63 | 55 | 76 | 29.83 | W | 3 | 0.00 |
| 17 | 05/27 | 08:00 | 53 | 53 | 100 | 29.83 | S | 0 | 0.00 |
| 18 | 05/27 | 07:00 | 47 | 46 | 100 | 29.82 | WSW | 0 | 0.00 |
| 19 | 05/27 | 06:00 | 46 | 45 | 99 | 29.81 | W | 0 | 0.00 |
| 20 | 05/27 | 05:00 | 47 | 46 | 99 | 29.79 | WSW | 0 | 0.00 |
| 21 | 05/27 | 04:00 | 49 | 48 | 98 | 29.79 | WSW | 0 | 0.00 |
| 22 | 05/27 | 03:00 | 51 | 50 | 98 | 29.78 | WSW | 0 | 0.00 |
| 23 | 05/27 | 02:00 | 52 | 50 | 95 | 29.79 | NE | 0 | 0.00 |
| 24 | 05/27 | 01:00 | 54 | 51 | 91 | 29.79 | SSE | 0 | 0.00 |